sensor_id;sensor_type;location;lat;lon;timestamp;temperature;humidity
752;DHT22;360;48.764;9.164;2023-02-21T00:00:47;4.90;78.20
752;DHT22;360;48.764;9.164;2023-02-21T00:03:32;4.80;99.90
752;DHT22;360;48.764;9.164;2023-02-21T00:06:18;4.70;99.90
752;DHT22;360;48.764;9.164;2023-02-21T00:09:02;4.60;99.90
752;DHT22;360;48.764;9.164;2023-02-21T00:11:47;4.60;99.90
752;DHT22;360;48.764;9.164;2023-02-21T00:14:32;5.00;53.80
752;DHT22;360;48.764;9.164;2023-02-21T00:17:17;4.80;99.90
752;DHT22;360;48.764;9.164;2023-02-21T00:20:01;4.60;99.90
752;DHT22;360;48.764;9.164;2023-02-21T00:22:46;4.60;99.90
752;DHT22;360;48.764;9.164;2023-02-21T00:25:31;4.40;99.90
752;DHT22;360;48.764;9.164;2023-02-21T00:28:15;4.40;99.90
752;DHT22;360;48.764;9.164;2023-02-21T00:30:59;4.40;1.00
752;DHT22;360;48.764;9.164;2023-02-21T00:33:43;4.50;99.90
752;DHT22;360;48.764;9.164;2023-02-21T00:36:27;4.60;99.90
752;DHT22;360;48.764;9.164;2023-02-21T00:39:13;4.60;99.90
752;DHT22;360;48.764;9.164;2023-02-21T00:41:57;4.30;1.00
752;DHT22;360;48.764;9.164;2023-02-21T00:44:41;4.10;1.00
752;DHT22;360;48.764;9.164;2023-02-21T00:47:26;4.10;4.30
752;DHT22;360;48.764;9.164;2023-02-21T00:50:10;4.20;1.00
752;DHT22;360;48.764;9.164;2023-02-21T00:52:54;4.10;47.50
752;DHT22;360;48.764;9.164;2023-02-21T00:55:40;4.00;99.90
752;DHT22;360;48.764;9.164;2023-02-21T00:58:24;4.10;99.90
752;DHT22;360;48.764;9.164;2023-02-21T01:01:08;4.10;1.00
752;DHT22;360;48.764;9.164;2023-02-21T01:03:52;4.20;1.00
752;DHT22;360;48.764;9.164;2023-02-21T01:06:37;4.10;1.00
752;DHT22;360;48.764;9.164;2023-02-21T01:09:21;4.10;99.90
752;DHT22;360;48.764;9.164;2023-02-21T01:12:07;4.30;1.00
752;DHT22;360;48.764;9.164;2023-02-21T01:14:51;4.20;1.00
752;DHT22;360;48.764;9.164;2023-02-21T01:17:35;4.50;99.90
752;DHT22;360;48.764;9.164;2023-02-21T01:20:19;4.40;99.90
752;DHT22;360;48.764;9.164;2023-02-21T01:23:03;4.30;1.00
752;DHT22;360;48.764;9.164;2023-02-21T01:25:47;4.20;1.00
752;DHT22;360;48.764;9.164;2023-02-21T01:28:33;4.30;1.00
752;DHT22;360;48.764;9.164;2023-02-21T01:31:18;4.40;1.00
752;DHT22;360;48.764;9.164;2023-02-21T01:34:02;4.40;1.00
752;DHT22;360;48.764;9.164;2023-02-21T01:36:46;4.60;99.90
752;DHT22;360;48.764;9.164;2023-02-21T01:39:30;4.30;1.00
752;DHT22;360;48.764;9.164;2023-02-21T01:42:14;4.40;1.00
752;DHT22;360;48.764;9.164;2023-02-21T01:45:32;4.30;1.00
752;DHT22;360;48.764;9.164;2023-02-21T01:48:20;4.40;74.20
752;DHT22;360;48.764;9.164;2023-02-21T01:51:07;4.60;1.00
752;DHT22;360;48.764;9.164;2023-02-21T01:53:52;4.50;1.00
752;DHT22;360;48.764;9.164;2023-02-21T01:56:38;4.60;1.00
752;DHT22;360;48.764;9.164;2023-02-21T01:59:24;4.50;1.00
752;DHT22;360;48.764;9.164;2023-02-21T02:02:14;4.50;1.00
752;DHT22;360;48.764;9.164;2023-02-21T02:05:00;4.20;99.90
752;DHT22;360;48.764;9.164;2023-02-21T02:07:45;4.30;99.90
752;DHT22;360;48.764;9.164;2023-02-21T02:10:29;4.40;1.00
752;DHT22;360;48.764;9.164;2023-02-21T02:13:28;4.20;99.90
752;DHT22;360;48.764;9.164;2023-02-21T02:16:03;4.20;99.90
752;DHT22;360;48.764;9.164;2023-02-21T02:18:57;4.30;99.90
752;DHT22;360;48.764;9.164;2023-02-21T02:27:52;4.40;99.90
752;DHT22;360;48.764;9.164;2023-02-21T02:30:58;4.50;99.90
752;DHT22;360;48.764;9.164;2023-02-21T02:36:42;4.40;99.90
752;DHT22;360;48.764;9.164;2023-02-21T02:39:18;4.40;99.90
752;DHT22;360;48.764;9.164;2023-02-21T02:41:53;4.50;93.90
752;DHT22;360;48.764;9.164;2023-02-21T02:44:27;4.30;99.90
752;DHT22;360;48.764;9.164;2023-02-21T02:46:58;4.10;1.00
752;DHT22;360;48.764;9.164;2023-02-21T02:49:28;4.00;1.00
752;DHT22;360;48.764;9.164;2023-02-21T02:52:02;4.10;1.00
752;DHT22;360;48.764;9.164;2023-02-21T02:54:29;4.10;30.60
752;DHT22;360;48.764;9.164;2023-02-21T02:56:57;4.30;1.00
752;DHT22;360;48.764;9.164;2023-02-21T02:59:25;4.30;1.00
752;DHT22;360;48.764;9.164;2023-02-21T03:02:27;4.40;1.00
752;DHT22;360;48.764;9.164;2023-02-21T03:05:10;4.30;1.00
752;DHT22;360;48.764;9.164;2023-02-21T03:07:47;4.20;1.00
752;DHT22;360;48.764;9.164;2023-02-21T03:10:25;4.10;65.50
752;DHT22;360;48.764;9.164;2023-02-21T03:13:00;3.90;4.30
752;DHT22;360;48.764;9.164;2023-02-21T03:15:32;4.00;1.00
752;DHT22;360;48.764;9.164;2023-02-21T03:18:06;4.00;1.00
752;DHT22;360;48.764;9.164;2023-02-21T03:20:36;3.90;85.70
752;DHT22;360;48.764;9.164;2023-02-21T03:23:05;4.10;99.90
752;DHT22;360;48.764;9.164;2023-02-21T03:25:34;4.20;99.90
752;DHT22;360;48.764;9.164;2023-02-21T03:28:03;4.00;99.90
752;DHT22;360;48.764;9.164;2023-02-21T03:30:30;3.90;99.90
752;DHT22;360;48.764;9.164;2023-02-21T03:32:57;3.80;1.00
752;DHT22;360;48.764;9.164;2023-02-21T03:35:27;3.80;99.90
752;DHT22;360;48.764;9.164;2023-02-21T03:37:55;3.80;32.00
752;DHT22;360;48.764;9.164;2023-02-21T03:40:26;3.90;99.90
752;DHT22;360;48.764;9.164;2023-02-21T03:42:55;4.10;1.00
752;DHT22;360;48.764;9.164;2023-02-21T03:45:22;3.90;1.00
752;DHT22;360;48.764;9.164;2023-02-21T03:47:49;4.00;1.00
752;DHT22;360;48.764;9.164;2023-02-21T03:50:16;4.00;99.90
752;DHT22;360;48.764;9.164;2023-02-21T03:52:43;3.90;1.00
752;DHT22;360;48.764;9.164;2023-02-21T03:55:10;3.80;99.90
752;DHT22;360;48.764;9.164;2023-02-21T03:57:38;3.70;1.00
752;DHT22;360;48.764;9.164;2023-02-21T04:00:06;3.90;1.00
752;DHT22;360;48.764;9.164;2023-02-21T04:02:33;3.90;99.90
752;DHT22;360;48.764;9.164;2023-02-21T04:05:00;4.00;1.00
752;DHT22;360;48.764;9.164;2023-02-21T04:07:27;3.90;99.90
752;DHT22;360;48.764;9.164;2023-02-21T04:09:54;3.80;99.90
752;DHT22;360;48.764;9.164;2023-02-21T04:12:20;3.70;99.90
752;DHT22;360;48.764;9.164;2023-02-21T04:14:49;4.00;99.90
752;DHT22;360;48.764;9.164;2023-02-21T04:17:17;3.90;99.90
752;DHT22;360;48.764;9.164;2023-02-21T04:19:43;3.80;1.00
752;DHT22;360;48.764;9.164;2023-02-21T04:22:10;3.70;1.00
752;DHT22;360;48.764;9.164;2023-02-21T04:24:37;3.80;1.00
752;DHT22;360;48.764;9.164;2023-02-21T04:27:04;4.10;1.00
752;DHT22;360;48.764;9.164;2023-02-21T04:29:30;3.80;1.00
752;DHT22;360;48.764;9.164;2023-02-21T04:31:59;3.90;1.00
752;DHT22;360;48.764;9.164;2023-02-21T04:34:27;3.90;99.90
752;DHT22;360;48.764;9.164;2023-02-21T04:36:54;4.00;1.00
752;DHT22;360;48.764;9.164;2023-02-21T04:39:21;3.80;1.00
752;DHT22;360;48.764;9.164;2023-02-21T04:41:48;3.80;1.00
752;DHT22;360;48.764;9.164;2023-02-21T04:44:14;3.60;1.00
752;DHT22;360;48.764;9.164;2023-02-21T04:46:42;3.40;75.50
752;DHT22;360;48.764;9.164;2023-02-21T04:49:11;3.70;99.90
752;DHT22;360;48.764;9.164;2023-02-21T04:51:38;3.60;1.00
752;DHT22;360;48.764;9.164;2023-02-21T04:54:05;3.60;99.90
752;DHT22;360;48.764;9.164;2023-02-21T04:56:33;3.60;1.00
752;DHT22;360;48.764;9.164;2023-02-21T04:58:59;3.70;99.90
752;DHT22;360;48.764;9.164;2023-02-21T05:01:27;3.60;99.90
752;DHT22;360;48.764;9.164;2023-02-21T05:03:55;3.80;1.00
752;DHT22;360;48.764;9.164;2023-02-21T05:06:24;3.90;1.00
752;DHT22;360;48.764;9.164;2023-02-21T05:08:52;4.00;99.90
752;DHT22;360;48.764;9.164;2023-02-21T05:11:19;4.10;1.00
752;DHT22;360;48.764;9.164;2023-02-21T05:13:46;4.20;99.90
752;DHT22;360;48.764;9.164;2023-02-21T05:16:13;4.10;99.90
752;DHT22;360;48.764;9.164;2023-02-21T05:18:41;3.60;38.20
752;DHT22;360;48.764;9.164;2023-02-21T05:21:08;3.60;1.00
752;DHT22;360;48.764;9.164;2023-02-21T05:23:39;3.70;99.90
752;DHT22;360;48.764;9.164;2023-02-21T05:26:08;3.80;99.90
752;DHT22;360;48.764;9.164;2023-02-21T05:28:36;3.60;99.90
752;DHT22;360;48.764;9.164;2023-02-21T05:31:03;3.60;1.00
752;DHT22;360;48.764;9.164;2023-02-21T05:33:30;3.70;99.90
752;DHT22;360;48.764;9.164;2023-02-21T05:35:57;3.60;1.00
752;DHT22;360;48.764;9.164;2023-02-21T05:38:25;3.50;99.90
752;DHT22;360;48.764;9.164;2023-02-21T05:40:53;3.50;99.90
752;DHT22;360;48.764;9.164;2023-02-21T05:43:20;3.30;1.00
752;DHT22;360;48.764;9.164;2023-02-21T05:45:47;3.40;99.90
752;DHT22;360;48.764;9.164;2023-02-21T05:48:14;3.40;5.30
752;DHT22;360;48.764;9.164;2023-02-21T05:50:41;3.50;99.90
752;DHT22;360;48.764;9.164;2023-02-21T05:53:09;3.60;99.90
752;DHT22;360;48.764;9.164;2023-02-21T05:55:36;3.50;1.00
752;DHT22;360;48.764;9.164;2023-02-21T05:58:04;3.50;99.90
752;DHT22;360;48.764;9.164;2023-02-21T06:00:31;3.50;99.90
752;DHT22;360;48.764;9.164;2023-02-21T06:02:58;3.50;99.90
752;DHT22;360;48.764;9.164;2023-02-21T06:05:25;3.50;99.90
752;DHT22;360;48.764;9.164;2023-02-21T06:07:52;3.50;99.90
752;DHT22;360;48.764;9.164;2023-02-21T06:10:19;3.30;1.00
752;DHT22;360;48.764;9.164;2023-02-21T06:12:46;3.20;1.00
752;DHT22;360;48.764;9.164;2023-02-21T06:15:14;3.30;1.00
752;DHT22;360;48.764;9.164;2023-02-21T06:17:41;3.50;1.00
752;DHT22;360;48.764;9.164;2023-02-21T06:20:11;3.40;1.00
752;DHT22;360;48.764;9.164;2023-02-21T06:22:38;3.30;1.00
752;DHT22;360;48.764;9.164;2023-02-21T06:25:06;3.30;2.60
752;DHT22;360;48.764;9.164;2023-02-21T06:27:34;3.30;99.90
752;DHT22;360;48.764;9.164;2023-02-21T06:30:01;3.30;67.90
752;DHT22;360;48.764;9.164;2023-02-21T06:32:29;3.30;99.90
752;DHT22;360;48.764;9.164;2023-02-21T06:34:56;3.40;95.20
752;DHT22;360;48.764;9.164;2023-02-21T06:37:23;3.40;1.00
752;DHT22;360;48.764;9.164;2023-02-21T06:39:49;3.40;12.00
752;DHT22;360;48.764;9.164;2023-02-21T06:42:17;3.40;99.90
752;DHT22;360;48.764;9.164;2023-02-21T06:44:44;3.40;99.90
752;DHT22;360;48.764;9.164;2023-02-21T06:47:12;3.50;70.00
752;DHT22;360;48.764;9.164;2023-02-21T06:49:40;4.00;1.00
752;DHT22;360;48.764;9.164;2023-02-21T06:52:08;4.30;52.90
752;DHT22;360;48.764;9.164;2023-02-21T06:54:35;4.30;1.00
752;DHT22;360;48.764;9.164;2023-02-21T06:57:02;4.30;1.00
752;DHT22;360;48.764;9.164;2023-02-21T06:59:30;4.50;1.00
752;DHT22;360;48.764;9.164;2023-02-21T07:01:57;4.50;99.90
752;DHT22;360;48.764;9.164;2023-02-21T07:04:24;4.40;1.00
752;DHT22;360;48.764;9.164;2023-02-21T07:06:52;4.30;98.90
752;DHT22;360;48.764;9.164;2023-02-21T07:09:19;3.90;1.00
752;DHT22;360;48.764;9.164;2023-02-21T07:11:46;3.90;99.90
752;DHT22;360;48.764;9.164;2023-02-21T07:14:13;4.00;7.70
752;DHT22;360;48.764;9.164;2023-02-21T07:16:40;4.20;99.90
752;DHT22;360;48.764;9.164;2023-02-21T07:19:07;4.30;99.90
752;DHT22;360;48.764;9.164;2023-02-21T07:21:34;4.10;1.00
752;DHT22;360;48.764;9.164;2023-02-21T07:24:02;3.90;99.90
752;DHT22;360;48.764;9.164;2023-02-21T07:26:29;3.80;99.90
752;DHT22;360;48.764;9.164;2023-02-21T07:28:56;3.80;1.00
752;DHT22;360;48.764;9.164;2023-02-21T07:31:23;3.90;1.00
752;DHT22;360;48.764;9.164;2023-02-21T07:33:49;4.00;99.90
752;DHT22;360;48.764;9.164;2023-02-21T07:36:16;4.30;99.90
752;DHT22;360;48.764;9.164;2023-02-21T07:38:43;4.20;61.60
752;DHT22;360;48.764;9.164;2023-02-21T07:41:13;4.50;99.90
752;DHT22;360;48.764;9.164;2023-02-21T07:43:41;4.80;1.00
752;DHT22;360;48.764;9.164;2023-02-21T07:46:09;4.90;1.00
752;DHT22;360;48.764;9.164;2023-02-21T07:48:36;4.90;99.90
752;DHT22;360;48.764;9.164;2023-02-21T07:51:05;5.10;1.00
752;DHT22;360;48.764;9.164;2023-02-21T07:53:31;5.20;1.00
752;DHT22;360;48.764;9.164;2023-02-21T07:55:58;5.30;1.00
752;DHT22;360;48.764;9.164;2023-02-21T08:25:26;5.40;99.90
752;DHT22;360;48.764;9.164;2023-02-21T08:27:53;6.40;99.90
752;DHT22;360;48.764;9.164;2023-02-21T08:30:20;6.70;1.00
752;DHT22;360;48.764;9.164;2023-02-21T08:32:48;6.70;99.90
752;DHT22;360;48.764;9.164;2023-02-21T08:35:17;6.80;99.90
752;DHT22;360;48.764;9.164;2023-02-21T08:37:45;6.90;99.90
752;DHT22;360;48.764;9.164;2023-02-21T08:40:12;7.00;25.60
752;DHT22;360;48.764;9.164;2023-02-21T08:42:40;7.10;1.00
752;DHT22;360;48.764;9.164;2023-02-21T08:45:07;7.20;1.00
752;DHT22;360;48.764;9.164;2023-02-21T08:47:37;7.30;1.00
752;DHT22;360;48.764;9.164;2023-02-21T13:56:12;7.40;1.00
752;DHT22;360;48.764;9.164;2023-02-21T13:58:40;18.80;1.00
752;DHT22;360;48.764;9.164;2023-02-21T14:03:55;18.80;1.00
752;DHT22;360;48.764;9.164;2023-02-21T14:06:34;18.70;1.00
752;DHT22;360;48.764;9.164;2023-02-21T14:09:14;19.00;1.00
752;DHT22;360;48.764;9.164;2023-02-21T14:11:45;19.10;1.00
752;DHT22;360;48.764;9.164;2023-02-21T14:14:28;18.70;1.00
752;DHT22;360;48.764;9.164;2023-02-21T14:17:01;18.40;1.00
752;DHT22;360;48.764;9.164;2023-02-21T14:19:33;18.40;1.00
752;DHT22;360;48.764;9.164;2023-02-21T14:22:04;18.50;1.00
752;DHT22;360;48.764;9.164;2023-02-21T14:24:37;19.00;1.00
752;DHT22;360;48.764;9.164;2023-02-21T14:27:36;18.70;1.00
752;DHT22;360;48.764;9.164;2023-02-21T14:30:27;18.70;1.00
752;DHT22;360;48.764;9.164;2023-02-21T14:32:59;18.80;1.00
752;DHT22;360;48.764;9.164;2023-02-21T14:35:32;18.70;1.00
752;DHT22;360;48.764;9.164;2023-02-21T14:38:02;18.70;1.00
752;DHT22;360;48.764;9.164;2023-02-21T14:40:41;18.60;1.00
752;DHT22;360;48.764;9.164;2023-02-21T14:43:41;18.50;1.00
752;DHT22;360;48.764;9.164;2023-02-21T14:46:31;18.50;1.00
752;DHT22;360;48.764;9.164;2023-02-21T14:49:35;18.60;1.00
752;DHT22;360;48.764;9.164;2023-02-21T14:55:38;18.70;1.00
752;DHT22;360;48.764;9.164;2023-02-21T14:58:50;18.30;1.00
752;DHT22;360;48.764;9.164;2023-02-21T15:01:36;18.50;1.00
752;DHT22;360;48.764;9.164;2023-02-21T15:04:13;18.50;1.00
752;DHT22;360;48.764;9.164;2023-02-21T15:06:44;18.80;1.00
752;DHT22;360;48.764;9.164;2023-02-21T15:09:17;18.80;1.00
752;DHT22;360;48.764;9.164;2023-02-21T15:11:46;18.70;1.00
752;DHT22;360;48.764;9.164;2023-02-21T15:14:16;18.80;1.00
752;DHT22;360;48.764;9.164;2023-02-21T15:16:50;18.70;1.00
752;DHT22;360;48.764;9.164;2023-02-21T15:19:27;18.90;1.00
752;DHT22;360;48.764;9.164;2023-02-21T15:22:14;20.00;1.00
752;DHT22;360;48.764;9.164;2023-02-21T15:24:56;19.30;1.00
752;DHT22;360;48.764;9.164;2023-02-21T15:27:24;19.10;1.00
752;DHT22;360;48.764;9.164;2023-02-21T15:30:04;19.10;1.00
752;DHT22;360;48.764;9.164;2023-02-21T15:32:33;19.30;1.00
752;DHT22;360;48.764;9.164;2023-02-21T15:35:02;20.50;1.00
752;DHT22;360;48.764;9.164;2023-02-21T15:37:30;22.20;1.00
752;DHT22;360;48.764;9.164;2023-02-21T15:40:00;22.70;1.00
752;DHT22;360;48.764;9.164;2023-02-21T15:42:38;23.20;1.00
752;DHT22;360;48.764;9.164;2023-02-21T15:45:08;23.70;1.00
752;DHT22;360;48.764;9.164;2023-02-21T15:47:37;23.60;1.00
752;DHT22;360;48.764;9.164;2023-02-21T15:50:07;23.70;1.00
752;DHT22;360;48.764;9.164;2023-02-21T15:52:38;23.80;1.00
752;DHT22;360;48.764;9.164;2023-02-21T15:55:14;23.70;1.00
752;DHT22;360;48.764;9.164;2023-02-21T15:57:42;22.80;1.00
752;DHT22;360;48.764;9.164;2023-02-21T16:00:24;23.10;1.00
752;DHT22;360;48.764;9.164;2023-02-21T16:02:51;22.30;1.00
752;DHT22;360;48.764;9.164;2023-02-21T16:05:23;21.60;1.00
752;DHT22;360;48.764;9.164;2023-02-21T16:07:51;21.40;1.00
752;DHT22;360;48.764;9.164;2023-02-21T16:10:21;21.10;1.00
752;DHT22;360;48.764;9.164;2023-02-21T16:12:55;21.00;1.00
752;DHT22;360;48.764;9.164;2023-02-21T16:15:26;20.80;1.00
752;DHT22;360;48.764;9.164;2023-02-21T16:17:56;19.40;1.00
752;DHT22;360;48.764;9.164;2023-02-21T16:20:27;18.70;1.00
752;DHT22;360;48.764;9.164;2023-02-21T16:23:20;18.40;1.00
